sensor_id;sensor_type;location;lat;lon;timestamp;temperature;humidity
21338;DHT22;72379;50.880;4.350;2023-10-31T00:13:11;12.40;99.90
21338;DHT22;72379;50.880;4.350;2023-10-31T00:15:37;12.40;99.90
21338;DHT22;72379;50.880;4.350;2023-10-31T00:18:02;12.40;99.90
21338;DHT22;72379;50.880;4.350;2023-10-31T00:20:28;12.20;99.90
21338;DHT22;72379;50.880;4.350;2023-10-31T00:22:54;12.20;99.90
21338;DHT22;72379;50.880;4.350;2023-10-31T00:27:46;12.20;99.90
21338;DHT22;72379;50.880;4.350;2023-10-31T00:30:12;12.20;99.90
21338;DHT22;72379;50.880;4.350;2023-10-31T00:32:37;12.20;99.90
21338;DHT22;72379;50.880;4.350;2023-10-31T00:35:03;12.20;99.90
21338;DHT22;72379;50.880;4.350;2023-10-31T00:37:29;12.20;99.90
21338;DHT22;72379;50.880;4.350;2023-10-31T00:39:55;12.10;99.90
21338;DHT22;72379;50.880;4.350;2023-10-31T00:42:20;12.20;99.90
21338;DHT22;72379;50.880;4.350;2023-10-31T00:44:47;12.30;99.90
21338;DHT22;72379;50.880;4.350;2023-10-31T00:47:13;12.20;99.90
21338;DHT22;72379;50.880;4.350;2023-10-31T00:49:40;12.30;99.90
21338;DHT22;72379;50.880;4.350;2023-10-31T00:52:05;12.10;99.90
21338;DHT22;72379;50.880;4.350;2023-10-31T00:54:31;12.20;99.90
21338;DHT22;72379;50.880;4.350;2023-10-31T01:04:22;12.10;99.90
21338;DHT22;72379;50.880;4.350;2023-10-31T01:09:16;11.90;99.90
21338;DHT22;72379;50.880;4.350;2023-10-31T01:11:41;12.20;99.90
21338;DHT22;72379;50.880;4.350;2023-10-31T01:14:07;12.30;99.90
21338;DHT22;72379;50.880;4.350;2023-10-31T01:23:50;11.90;99.90
21338;DHT22;72379;50.880;4.350;2023-10-31T01:26:16;11.80;99.90
21338;DHT22;72379;50.880;4.350;2023-10-31T01:28:42;11.60;99.90
21338;DHT22;72379;50.880;4.350;2023-10-31T01:31:07;11.60;99.90
21338;DHT22;72379;50.880;4.350;2023-10-31T01:36:00;11.80;99.90
21338;DHT22;72379;50.880;4.350;2023-10-31T01:38:25;11.60;99.90
21338;DHT22;72379;50.880;4.350;2023-10-31T01:43:34;11.30;99.90
21338;DHT22;72379;50.880;4.350;2023-10-31T01:46:01;11.60;99.90
21338;DHT22;72379;50.880;4.350;2023-10-31T01:48:28;11.50;99.90
21338;DHT22;72379;50.880;4.350;2023-10-31T01:53:21;11.60;99.90
21338;DHT22;72379;50.880;4.350;2023-10-31T01:58:14;11.80;99.90
21338;DHT22;72379;50.880;4.350;2023-10-31T02:00:40;11.80;99.90
21338;DHT22;72379;50.880;4.350;2023-10-31T02:05:34;12.10;99.90
21338;DHT22;72379;50.880;4.350;2023-10-31T02:08:00;11.90;99.90
21338;DHT22;72379;50.880;4.350;2023-10-31T02:12:52;11.70;99.90
21338;DHT22;72379;50.880;4.350;2023-10-31T02:15:18;11.70;99.90
21338;DHT22;72379;50.880;4.350;2023-10-31T02:20:10;12.10;99.90
21338;DHT22;72379;50.880;4.350;2023-10-31T02:22:35;12.20;99.90
21338;DHT22;72379;50.880;4.350;2023-10-31T02:25:01;12.00;99.90
21338;DHT22;72379;50.880;4.350;2023-10-31T02:27:27;12.00;99.90
21338;DHT22;72379;50.880;4.350;2023-10-31T02:29:52;11.90;99.90
21338;DHT22;72379;50.880;4.350;2023-10-31T02:32:18;12.30;99.90
21338;DHT22;72379;50.880;4.350;2023-10-31T02:34:47;12.30;99.90
21338;DHT22;72379;50.880;4.350;2023-10-31T02:37:13;12.00;99.90
21338;DHT22;72379;50.880;4.350;2023-10-31T02:39:38;11.90;99.90
21338;DHT22;72379;50.880;4.350;2023-10-31T02:42:04;11.90;99.90
21338;DHT22;72379;50.880;4.350;2023-10-31T02:44:30;11.90;99.90
21338;DHT22;72379;50.880;4.350;2023-10-31T02:59:06;11.80;99.90
21338;DHT22;72379;50.880;4.350;2023-10-31T03:01:32;11.80;99.90
21338;DHT22;72379;50.880;4.350;2023-10-31T03:03:57;11.80;99.90
21338;DHT22;72379;50.880;4.350;2023-10-31T03:06:23;11.80;99.90
21338;DHT22;72379;50.880;4.350;2023-10-31T03:08:49;11.90;99.90
21338;DHT22;72379;50.880;4.350;2023-10-31T03:11:25;11.90;99.90
21338;DHT22;72379;50.880;4.350;2023-10-31T03:13:50;11.70;99.90
21338;DHT22;72379;50.880;4.350;2023-10-31T03:18:42;11.70;99.90
21338;DHT22;72379;50.880;4.350;2023-10-31T03:23:35;11.80;99.90
21338;DHT22;72379;50.880;4.350;2023-10-31T03:26:01;11.60;99.90
21338;DHT22;72379;50.880;4.350;2023-10-31T03:28:26;11.60;99.90
21338;DHT22;72379;50.880;4.350;2023-10-31T03:30:52;11.60;99.90
21338;DHT22;72379;50.880;4.350;2023-10-31T03:33:18;11.60;99.90
21338;DHT22;72379;50.880;4.350;2023-10-31T03:35:44;11.40;99.90
21338;DHT22;72379;50.880;4.350;2023-10-31T03:43:02;11.40;99.90
21338;DHT22;72379;50.880;4.350;2023-10-31T03:45:29;11.40;99.90
21338;DHT22;72379;50.880;4.350;2023-10-31T03:47:54;11.20;99.90
21338;DHT22;72379;50.880;4.350;2023-10-31T03:50:20;11.30;99.90
21338;DHT22;72379;50.880;4.350;2023-10-31T03:52:45;11.30;99.90
21338;DHT22;72379;50.880;4.350;2023-10-31T03:55:11;11.40;99.90
21338;DHT22;72379;50.880;4.350;2023-10-31T03:57:37;11.30;99.90
21338;DHT22;72379;50.880;4.350;2023-10-31T04:02:32;11.30;99.90
21338;DHT22;72379;50.880;4.350;2023-10-31T04:04:58;11.40;99.90
21338;DHT22;72379;50.880;4.350;2023-10-31T04:07:24;11.40;99.90
21338;DHT22;72379;50.880;4.350;2023-10-31T04:09:49;11.50;99.90
21338;DHT22;72379;50.880;4.350;2023-10-31T04:21:59;11.40;99.90
21338;DHT22;72379;50.880;4.350;2023-10-31T04:24:25;11.50;99.90
21338;DHT22;72379;50.880;4.350;2023-10-31T04:26:50;11.40;99.90
21338;DHT22;72379;50.880;4.350;2023-10-31T04:29:16;11.40;99.90
21338;DHT22;72379;50.880;4.350;2023-10-31T04:31:42;11.30;99.90
21338;DHT22;72379;50.880;4.350;2023-10-31T04:34:08;11.10;99.90
21338;DHT22;72379;50.880;4.350;2023-10-31T04:36:33;11.40;99.90
21338;DHT22;72379;50.880;4.350;2023-10-31T04:41:25;11.70;99.90
21338;DHT22;72379;50.880;4.350;2023-10-31T04:43:51;11.40;99.90
21338;DHT22;72379;50.880;4.350;2023-10-31T04:46:16;11.40;99.90
21338;DHT22;72379;50.880;4.350;2023-10-31T04:48:42;11.30;99.90
21338;DHT22;72379;50.880;4.350;2023-10-31T04:51:08;11.30;99.90
21338;DHT22;72379;50.880;4.350;2023-10-31T04:56:00;11.50;99.90
21338;DHT22;72379;50.880;4.350;2023-10-31T05:00:52;11.40;99.90
21338;DHT22;72379;50.880;4.350;2023-10-31T05:03:17;11.50;99.90
21338;DHT22;72379;50.880;4.350;2023-10-31T05:05:44;11.70;99.90
21338;DHT22;72379;50.880;4.350;2023-10-31T05:08:10;11.60;99.90
21338;DHT22;72379;50.880;4.350;2023-10-31T05:13:01;11.60;99.90
21338;DHT22;72379;50.880;4.350;2023-10-31T05:15:28;11.50;99.90
21338;DHT22;72379;50.880;4.350;2023-10-31T05:17:54;11.60;99.90
21338;DHT22;72379;50.880;4.350;2023-10-31T05:20:20;12.00;99.90
21338;DHT22;72379;50.880;4.350;2023-10-31T05:22:48;12.00;99.90
21338;DHT22;72379;50.880;4.350;2023-10-31T05:25:13;12.00;99.90
21338;DHT22;72379;50.880;4.350;2023-10-31T05:27:39;11.90;99.90
21338;DHT22;72379;50.880;4.350;2023-10-31T05:30:05;11.90;99.90
21338;DHT22;72379;50.880;4.350;2023-10-31T05:32:31;11.70;99.90
21338;DHT22;72379;50.880;4.350;2023-10-31T05:34:56;11.80;99.90
21338;DHT22;72379;50.880;4.350;2023-10-31T05:37:22;12.00;99.90
21338;DHT22;72379;50.880;4.350;2023-10-31T05:44:40;12.30;99.90
21338;DHT22;72379;50.880;4.350;2023-10-31T05:51:57;11.70;99.90
21338;DHT22;72379;50.880;4.350;2023-10-31T05:56:51;11.80;99.90
21338;DHT22;72379;50.880;4.350;2023-10-31T05:59:16;11.80;99.90
21338;DHT22;72379;50.880;4.350;2023-10-31T06:01:42;11.80;99.90
21338;DHT22;72379;50.880;4.350;2023-10-31T06:06:37;11.70;99.90
21338;DHT22;72379;50.880;4.350;2023-10-31T06:09:04;11.70;99.90
21338;DHT22;72379;50.880;4.350;2023-10-31T06:21:14;12.00;99.90
21338;DHT22;72379;50.880;4.350;2023-10-31T06:23:40;12.00;99.90
21338;DHT22;72379;50.880;4.350;2023-10-31T06:26:05;12.00;99.90
21338;DHT22;72379;50.880;4.350;2023-10-31T06:28:31;11.90;99.90
21338;DHT22;72379;50.880;4.350;2023-10-31T06:31:00;11.80;99.90
21338;DHT22;72379;50.880;4.350;2023-10-31T06:40:45;11.80;99.90
21338;DHT22;72379;50.880;4.350;2023-10-31T06:45:37;11.60;99.90
21338;DHT22;72379;50.880;4.350;2023-10-31T06:48:03;11.50;99.90
21338;DHT22;72379;50.880;4.350;2023-10-31T06:52:55;11.70;99.90
21338;DHT22;72379;50.880;4.350;2023-10-31T07:02:39;11.60;99.90
21338;DHT22;72379;50.880;4.350;2023-10-31T07:05:05;11.60;99.90
21338;DHT22;72379;50.880;4.350;2023-10-31T07:09:58;11.60;99.90
21338;DHT22;72379;50.880;4.350;2023-10-31T07:12:24;11.40;99.90
21338;DHT22;72379;50.880;4.350;2023-10-31T07:14:50;11.50;99.90
21338;DHT22;72379;50.880;4.350;2023-10-31T07:17:16;11.40;99.90
21338;DHT22;72379;50.880;4.350;2023-10-31T07:22:07;11.60;99.90
21338;DHT22;72379;50.880;4.350;2023-10-31T07:29:31;11.70;99.90
21338;DHT22;72379;50.880;4.350;2023-10-31T07:41:41;11.90;99.90
21338;DHT22;72379;50.880;4.350;2023-10-31T07:44:07;11.90;99.90
21338;DHT22;72379;50.880;4.350;2023-10-31T07:46:32;12.10;99.90
21338;DHT22;72379;50.880;4.350;2023-10-31T07:48:59;12.10;99.90
21338;DHT22;72379;50.880;4.350;2023-10-31T07:51:25;12.30;99.90
21338;DHT22;72379;50.880;4.350;2023-10-31T07:53:50;12.40;99.90
21338;DHT22;72379;50.880;4.350;2023-10-31T07:56:17;12.50;99.90
21338;DHT22;72379;50.880;4.350;2023-10-31T07:58:43;12.40;99.90
21338;DHT22;72379;50.880;4.350;2023-10-31T08:01:09;12.50;99.90
21338;DHT22;72379;50.880;4.350;2023-10-31T08:03:37;12.60;99.90
21338;DHT22;72379;50.880;4.350;2023-10-31T08:06:05;12.60;99.90
21338;DHT22;72379;50.880;4.350;2023-10-31T08:08:31;12.30;99.90
21338;DHT22;72379;50.880;4.350;2023-10-31T08:10:56;12.40;99.90
21338;DHT22;72379;50.880;4.350;2023-10-31T08:13:24;12.30;99.90
21338;DHT22;72379;50.880;4.350;2023-10-31T08:18:16;12.40;99.90
21338;DHT22;72379;50.880;4.350;2023-10-31T08:23:09;12.30;99.90
21338;DHT22;72379;50.880;4.350;2023-10-31T08:25:34;12.30;99.90
21338;DHT22;72379;50.880;4.350;2023-10-31T08:35:18;11.70;99.90
21338;DHT22;72379;50.880;4.350;2023-10-31T08:37:46;11.60;99.90
21338;DHT22;72379;50.880;4.350;2023-10-31T08:45:05;11.70;99.90
21338;DHT22;72379;50.880;4.350;2023-10-31T08:47:30;11.70;99.90
21338;DHT22;72379;50.880;4.350;2023-10-31T09:02:07;12.60;99.90
21338;DHT22;72379;50.880;4.350;2023-10-31T09:04:33;13.00;99.90
21338;DHT22;72379;50.880;4.350;2023-10-31T09:06:58;13.30;99.90
21338;DHT22;72379;50.880;4.350;2023-10-31T09:09:24;13.30;99.90
21338;DHT22;72379;50.880;4.350;2023-10-31T09:16:42;13.60;99.90
21338;DHT22;72379;50.880;4.350;2023-10-31T09:19:07;13.80;99.90
21338;DHT22;72379;50.880;4.350;2023-10-31T09:23:59;13.90;99.90
21338;DHT22;72379;50.880;4.350;2023-10-31T09:31:17;13.50;99.90
21338;DHT22;72379;50.880;4.350;2023-10-31T09:38:36;13.30;99.90
21338;DHT22;72379;50.880;4.350;2023-10-31T09:41:02;13.10;99.90
21338;DHT22;72379;50.880;4.350;2023-10-31T09:43:28;13.10;99.90
21338;DHT22;72379;50.880;4.350;2023-10-31T09:45:54;12.90;99.90
21338;DHT22;72379;50.880;4.350;2023-10-31T09:48:19;13.10;99.90
21338;DHT22;72379;50.880;4.350;2023-10-31T09:50:46;13.00;99.90
21338;DHT22;72379;50.880;4.350;2023-10-31T09:53:14;13.10;99.90
21338;DHT22;72379;50.880;4.350;2023-10-31T09:55:42;13.00;99.90
21338;DHT22;72379;50.880;4.350;2023-10-31T09:58:08;12.80;99.90
21338;DHT22;72379;50.880;4.350;2023-10-31T10:00:33;12.90;99.90
21338;DHT22;72379;50.880;4.350;2023-10-31T10:03:03;12.90;99.90
21338;DHT22;72379;50.880;4.350;2023-10-31T10:05:31;13.00;99.90
21338;DHT22;72379;50.880;4.350;2023-10-31T10:12:52;12.90;99.90
21338;DHT22;72379;50.880;4.350;2023-10-31T10:15:17;13.00;99.90
21338;DHT22;72379;50.880;4.350;2023-10-31T10:17:51;13.00;99.90
21338;DHT22;72379;50.880;4.350;2023-10-31T10:20:17;12.70;99.90
21338;DHT22;72379;50.880;4.350;2023-10-31T10:25:10;12.60;99.90
21338;DHT22;72379;50.880;4.350;2023-10-31T10:27:37;12.60;99.90
21338;DHT22;72379;50.880;4.350;2023-10-31T10:30:04;13.10;99.90
21338;DHT22;72379;50.880;4.350;2023-10-31T10:32:30;12.60;99.90
21338;DHT22;72379;50.880;4.350;2023-10-31T10:34:56;12.60;99.90
21338;DHT22;72379;50.880;4.350;2023-10-31T10:39:51;12.80;99.90
21338;DHT22;72379;50.880;4.350;2023-10-31T10:42:33;13.00;99.90
21338;DHT22;72379;50.880;4.350;2023-10-31T10:45:03;12.80;99.90
21338;DHT22;72379;50.880;4.350;2023-10-31T10:47:33;12.80;99.90
21338;DHT22;72379;50.880;4.350;2023-10-31T10:50:01;12.90;99.90
21338;DHT22;72379;50.880;4.350;2023-10-31T10:52:41;13.00;99.90
21338;DHT22;72379;50.880;4.350;2023-10-31T10:55:21;13.10;99.90
21338;DHT22;72379;50.880;4.350;2023-10-31T11:02:43;12.80;99.90
21338;DHT22;72379;50.880;4.350;2023-10-31T11:05:09;13.00;99.90
21338;DHT22;72379;50.880;4.350;2023-10-31T11:07:38;12.90;99.90
21338;DHT22;72379;50.880;4.350;2023-10-31T11:10:04;12.90;99.90
21338;DHT22;72379;50.880;4.350;2023-10-31T11:12:32;12.60;99.90
21338;DHT22;72379;50.880;4.350;2023-10-31T11:14:58;12.70;99.90
21338;DHT22;72379;50.880;4.350;2023-10-31T11:17:29;12.70;99.90
21338;DHT22;72379;50.880;4.350;2023-10-31T11:19:56;13.10;99.90
21338;DHT22;72379;50.880;4.350;2023-10-31T11:24:49;12.80;99.90
21338;DHT22;72379;50.880;4.350;2023-10-31T11:27:17;12.70;99.90
21338;DHT22;72379;50.880;4.350;2023-10-31T11:32:11;12.70;99.90
21338;DHT22;72379;50.880;4.350;2023-10-31T11:34:38;12.90;99.90
21338;DHT22;72379;50.880;4.350;2023-10-31T11:40:14;13.00;99.90
21338;DHT22;72379;50.880;4.350;2023-10-31T11:42:44;13.20;99.90
21338;DHT22;72379;50.880;4.350;2023-10-31T11:45:12;13.20;99.90
21338;DHT22;72379;50.880;4.350;2023-10-31T11:47:47;13.40;99.90
21338;DHT22;72379;50.880;4.350;2023-10-31T11:50:13;13.00;99.90
21338;DHT22;72379;50.880;4.350;2023-10-31T11:52:39;13.20;99.90
21338;DHT22;72379;50.880;4.350;2023-10-31T11:55:12;13.10;99.90
21338;DHT22;72379;50.880;4.350;2023-10-31T11:57:41;13.00;99.90
21338;DHT22;72379;50.880;4.350;2023-10-31T12:05:12;12.90;99.90
21338;DHT22;72379;50.880;4.350;2023-10-31T12:07:46;13.00;99.90
21338;DHT22;72379;50.880;4.350;2023-10-31T12:10:12;12.90;99.90
21338;DHT22;72379;50.880;4.350;2023-10-31T12:12:38;13.00;99.90
21338;DHT22;72379;50.880;4.350;2023-10-31T12:15:08;13.00;99.90
21338;DHT22;72379;50.880;4.350;2023-10-31T12:17:34;12.90;99.90
21338;DHT22;72379;50.880;4.350;2023-10-31T12:20:07;12.90;99.90
21338;DHT22;72379;50.880;4.350;2023-10-31T12:22:34;12.80;99.90
21338;DHT22;72379;50.880;4.350;2023-10-31T12:25:04;12.80;99.90
21338;DHT22;72379;50.880;4.350;2023-10-31T12:30:21;13.00;99.90
21338;DHT22;72379;50.880;4.350;2023-10-31T12:32:54;12.80;99.90
21338;DHT22;72379;50.880;4.350;2023-10-31T12:35:24;13.00;99.90
21338;DHT22;72379;50.880;4.350;2023-10-31T12:40:19;13.10;99.90
21338;DHT22;72379;50.880;4.350;2023-10-31T12:42:46;13.20;99.90
21338;DHT22;72379;50.880;4.350;2023-10-31T12:45:13;13.30;99.90
21338;DHT22;72379;50.880;4.350;2023-10-31T12:47:39;13.30;99.90
21338;DHT22;72379;50.880;4.350;2023-10-31T12:52:54;13.30;99.90
21338;DHT22;72379;50.880;4.350;2023-10-31T12:55:22;13.50;99.90
21338;DHT22;72379;50.880;4.350;2023-10-31T12:57:49;13.60;99.90
21338;DHT22;72379;50.880;4.350;2023-10-31T13:00:17;13.50;99.90
21338;DHT22;72379;50.880;4.350;2023-10-31T13:03:03;13.40;99.90
21338;DHT22;72379;50.880;4.350;2023-10-31T13:05:30;13.50;99.90
21338;DHT22;72379;50.880;4.350;2023-10-31T13:07:57;13.90;99.90
21338;DHT22;72379;50.880;4.350;2023-10-31T13:10:24;13.50;99.90
21338;DHT22;72379;50.880;4.350;2023-10-31T13:12:51;13.40;99.90
21338;DHT22;72379;50.880;4.350;2023-10-31T13:15:22;13.30;99.90
21338;DHT22;72379;50.880;4.350;2023-10-31T13:17:48;13.40;99.90
21338;DHT22;72379;50.880;4.350;2023-10-31T13:20:15;13.30;99.90
21338;DHT22;72379;50.880;4.350;2023-10-31T13:22:42;13.30;99.90
21338;DHT22;72379;50.880;4.350;2023-10-31T13:25:09;13.00;99.90
21338;DHT22;72379;50.880;4.350;2023-10-31T13:27:40;13.10;99.90
21338;DHT22;72379;50.880;4.350;2023-10-31T13:30:08;13.20;99.90
21338;DHT22;72379;50.880;4.350;2023-10-31T13:37:28;13.30;99.90
21338;DHT22;72379;50.880;4.350;2023-10-31T13:42:20;13.60;99.90
21338;DHT22;72379;50.880;4.350;2023-10-31T13:44:47;13.40;99.90
21338;DHT22;72379;50.880;4.350;2023-10-31T13:47:14;13.60;99.90
21338;DHT22;72379;50.880;4.350;2023-10-31T13:49:39;13.70;99.90
21338;DHT22;72379;50.880;4.350;2023-10-31T13:52:06;13.80;99.90
21338;DHT22;72379;50.880;4.350;2023-10-31T13:54:32;13.90;99.90
21338;DHT22;72379;50.880;4.350;2023-10-31T13:56:58;14.30;99.90
21338;DHT22;72379;50.880;4.350;2023-10-31T13:59:24;14.60;99.90
21338;DHT22;72379;50.880;4.350;2023-10-31T14:04:17;14.50;99.90
21338;DHT22;72379;50.880;4.350;2023-10-31T14:09:10;14.40;99.90
21338;DHT22;72379;50.880;4.350;2023-10-31T14:11:38;14.40;99.90
21338;DHT22;72379;50.880;4.350;2023-10-31T14:14:04;14.20;99.90
21338;DHT22;72379;50.880;4.350;2023-10-31T14:16:42;13.80;99.90
21338;DHT22;72379;50.880;4.350;2023-10-31T14:19:10;14.20;99.90
21338;DHT22;72379;50.880;4.350;2023-10-31T14:21:36;14.20;99.90
21338;DHT22;72379;50.880;4.350;2023-10-31T14:24:02;13.70;99.90
21338;DHT22;72379;50.880;4.350;2023-10-31T14:26:29;14.70;99.90
21338;DHT22;72379;50.880;4.350;2023-10-31T14:28:55;14.40;99.90
21338;DHT22;72379;50.880;4.350;2023-10-31T14:31:21;14.50;99.90
21338;DHT22;72379;50.880;4.350;2023-10-31T14:38:40;14.70;99.90
21338;DHT22;72379;50.880;4.350;2023-10-31T14:41:07;14.50;99.90
21338;DHT22;72379;50.880;4.350;2023-10-31T14:50:52;14.50;99.90
21338;DHT22;72379;50.880;4.350;2023-10-31T14:53:18;14.40;99.90
21338;DHT22;72379;50.880;4.350;2023-10-31T14:55:47;14.40;99.90
21338;DHT22;72379;50.880;4.350;2023-10-31T14:58:13;14.40;99.90
21338;DHT22;72379;50.880;4.350;2023-10-31T15:00:39;14.40;99.90
21338;DHT22;72379;50.880;4.350;2023-10-31T15:03:05;14.30;99.90
21338;DHT22;72379;50.880;4.350;2023-10-31T15:10:24;14.40;99.90
21338;DHT22;72379;50.880;4.350;2023-10-31T15:15:16;14.30;99.90
21338;DHT22;72379;50.880;4.350;2023-10-31T15:17:42;14.40;99.90
21338;DHT22;72379;50.880;4.350;2023-10-31T15:20:08;14.20;99.90
21338;DHT22;72379;50.880;4.350;2023-10-31T15:22:41;14.20;99.90
21338;DHT22;72379;50.880;4.350;2023-10-31T15:25:10;14.20;99.90
21338;DHT22;72379;50.880;4.350;2023-10-31T15:27:36;14.20;99.90
21338;DHT22;72379;50.880;4.350;2023-10-31T15:34:54;13.80;99.90
21338;DHT22;72379;50.880;4.350;2023-10-31T15:37:20;13.90;99.90
21338;DHT22;72379;50.880;4.350;2023-10-31T15:39:46;13.80;99.90
21338;DHT22;72379;50.880;4.350;2023-10-31T15:42:16;13.70;99.90
21338;DHT22;72379;50.880;4.350;2023-10-31T15:49:35;13.70;99.90
21338;DHT22;72379;50.880;4.350;2023-10-31T15:52:02;13.60;99.90
21338;DHT22;72379;50.880;4.350;2023-10-31T15:56:59;13.60;99.90
21338;DHT22;72379;50.880;4.350;2023-10-31T15:59:27;13.70;99.90
21338;DHT22;72379;50.880;4.350;2023-10-31T16:01:53;13.60;99.90
21338;DHT22;72379;50.880;4.350;2023-10-31T16:06:45;13.70;99.90
21338;DHT22;72379;50.880;4.350;2023-10-31T16:09:12;13.70;99.90
21338;DHT22;72379;50.880;4.350;2023-10-31T16:14:04;13.80;99.90
21338;DHT22;72379;50.880;4.350;2023-10-31T16:23:49;13.70;99.90
21338;DHT22;72379;50.880;4.350;2023-10-31T16:26:19;13.80;99.90
21338;DHT22;72379;50.880;4.350;2023-10-31T16:28:45;13.80;99.90
21338;DHT22;72379;50.880;4.350;2023-10-31T16:31:15;13.80;99.90
21338;DHT22;72379;50.880;4.350;2023-10-31T16:33:42;13.80;99.90
21338;DHT22;72379;50.880;4.350;2023-10-31T16:36:08;13.60;99.90
21338;DHT22;72379;50.880;4.350;2023-10-31T16:38:34;13.60;99.90
21338;DHT22;72379;50.880;4.350;2023-10-31T16:41:00;13.70;99.90
21338;DHT22;72379;50.880;4.350;2023-10-31T16:43:27;13.80;99.90
21338;DHT22;72379;50.880;4.350;2023-10-31T16:45:53;13.60;99.90
21338;DHT22;72379;50.880;4.350;2023-10-31T16:48:19;13.50;99.90
21338;DHT22;72379;50.880;4.350;2023-10-31T16:55:36;13.40;99.90
21338;DHT22;72379;50.880;4.350;2023-10-31T17:03:01;13.60;99.90
21338;DHT22;72379;50.880;4.350;2023-10-31T17:05:26;13.80;99.90
21338;DHT22;72379;50.880;4.350;2023-10-31T17:07:52;14.00;99.90
21338;DHT22;72379;50.880;4.350;2023-10-31T17:10:18;13.80;99.90
21338;DHT22;72379;50.880;4.350;2023-10-31T17:12:44;14.00;99.90
21338;DHT22;72379;50.880;4.350;2023-10-31T17:15:10;14.20;99.90
21338;DHT22;72379;50.880;4.350;2023-10-31T17:17:35;14.20;99.90
21338;DHT22;72379;50.880;4.350;2023-10-31T17:24:53;13.70;99.90
21338;DHT22;72379;50.880;4.350;2023-10-31T17:27:19;13.50;99.90
21338;DHT22;72379;50.880;4.350;2023-10-31T17:29:45;13.50;99.90
21338;DHT22;72379;50.880;4.350;2023-10-31T17:32:11;13.00;99.90
21338;DHT22;72379;50.880;4.350;2023-10-31T17:34:37;13.60;99.90
21338;DHT22;72379;50.880;4.350;2023-10-31T17:37:02;13.80;99.90
21338;DHT22;72379;50.880;4.350;2023-10-31T17:44:21;13.60;99.90
21338;DHT22;72379;50.880;4.350;2023-10-31T17:46:47;13.60;99.90
21338;DHT22;72379;50.880;4.350;2023-10-31T17:49:12;13.20;99.90
21338;DHT22;72379;50.880;4.350;2023-10-31T17:51:44;13.20;99.90
21338;DHT22;72379;50.880;4.350;2023-10-31T17:54:10;13.20;99.90
21338;DHT22;72379;50.880;4.350;2023-10-31T17:56:36;13.20;99.90
21338;DHT22;72379;50.880;4.350;2023-10-31T17:59:05;13.50;99.90
21338;DHT22;72379;50.880;4.350;2023-10-31T18:06:23;13.60;99.90
21338;DHT22;72379;50.880;4.350;2023-10-31T18:08:49;13.50;99.90
21338;DHT22;72379;50.880;4.350;2023-10-31T18:11:16;13.60;99.90
21338;DHT22;72379;50.880;4.350;2023-10-31T18:13:42;13.50;99.90
21338;DHT22;72379;50.880;4.350;2023-10-31T18:16:08;13.60;99.90
21338;DHT22;72379;50.880;4.350;2023-10-31T18:21:00;13.50;99.90
21338;DHT22;72379;50.880;4.350;2023-10-31T18:23:29;13.60;99.90
21338;DHT22;72379;50.880;4.350;2023-10-31T18:25:58;13.50;99.90
21338;DHT22;72379;50.880;4.350;2023-10-31T18:30:51;13.90;99.90
21338;DHT22;72379;50.880;4.350;2023-10-31T18:33:17;13.40;99.90
21338;DHT22;72379;50.880;4.350;2023-10-31T18:40:36;13.60;99.90
21338;DHT22;72379;50.880;4.350;2023-10-31T18:43:02;13.40;99.90
21338;DHT22;72379;50.880;4.350;2023-10-31T18:45:27;13.40;99.90
21338;DHT22;72379;50.880;4.350;2023-10-31T18:47:53;13.40;99.90
21338;DHT22;72379;50.880;4.350;2023-10-31T18:52:46;13.50;99.90
21338;DHT22;72379;50.880;4.350;2023-10-31T18:55:12;13.00;99.90
21338;DHT22;72379;50.880;4.350;2023-10-31T19:00:04;13.50;99.90
21338;DHT22;72379;50.880;4.350;2023-10-31T19:02:32;13.40;99.90
21338;DHT22;72379;50.880;4.350;2023-10-31T19:04:59;13.10;99.90
21338;DHT22;72379;50.880;4.350;2023-10-31T19:14:46;13.30;99.90
21338;DHT22;72379;50.880;4.350;2023-10-31T19:17:12;13.40;99.90
21338;DHT22;72379;50.880;4.350;2023-10-31T19:19:38;13.30;99.90
21338;DHT22;72379;50.880;4.350;2023-10-31T19:22:04;13.30;99.90
21338;DHT22;72379;50.880;4.350;2023-10-31T19:29:22;13.30;99.90
21338;DHT22;72379;50.880;4.350;2023-10-31T19:31:47;13.30;99.90
21338;DHT22;72379;50.880;4.350;2023-10-31T19:36:39;13.10;99.90
21338;DHT22;72379;50.880;4.350;2023-10-31T19:41:32;13.20;99.90
21338;DHT22;72379;50.880;4.350;2023-10-31T19:43:58;13.10;99.90
21338;DHT22;72379;50.880;4.350;2023-10-31T19:46:24;13.20;99.90
21338;DHT22;72379;50.880;4.350;2023-10-31T19:48:52;13.20;99.90
21338;DHT22;72379;50.880;4.350;2023-10-31T19:51:20;13.30;99.90
21338;DHT22;72379;50.880;4.350;2023-10-31T19:53:45;13.30;99.90
21338;DHT22;72379;50.880;4.350;2023-10-31T19:56:18;13.30;99.90
21338;DHT22;72379;50.880;4.350;2023-10-31T20:01:11;13.20;99.90
21338;DHT22;72379;50.880;4.350;2023-10-31T20:03:36;13.20;99.90
21338;DHT22;72379;50.880;4.350;2023-10-31T20:06:02;13.10;99.90
21338;DHT22;72379;50.880;4.350;2023-10-31T20:15:48;13.20;99.90
21338;DHT22;72379;50.880;4.350;2023-10-31T20:18:16;13.20;99.90
21338;DHT22;72379;50.880;4.350;2023-10-31T20:20:41;13.10;99.90
21338;DHT22;72379;50.880;4.350;2023-10-31T20:28:00;14.60;99.90
21338;DHT22;72379;50.880;4.350;2023-10-31T20:30:26;13.30;99.90
21338;DHT22;72379;50.880;4.350;2023-10-31T20:32:54;13.20;99.90
21338;DHT22;72379;50.880;4.350;2023-10-31T20:35:20;13.20;99.90
21338;DHT22;72379;50.880;4.350;2023-10-31T20:37:46;13.20;99.90
21338;DHT22;72379;50.880;4.350;2023-10-31T20:40:12;13.30;99.90
21338;DHT22;72379;50.880;4.350;2023-10-31T20:42:41;13.20;99.90
21338;DHT22;72379;50.880;4.350;2023-10-31T20:45:08;13.30;99.90
21338;DHT22;72379;50.880;4.350;2023-10-31T20:47:35;13.20;99.90
21338;DHT22;72379;50.880;4.350;2023-10-31T20:50:02;13.30;99.90
21338;DHT22;72379;50.880;4.350;2023-10-31T20:52:34;13.50;99.90
21338;DHT22;72379;50.880;4.350;2023-10-31T20:55:00;12.30;99.90
21338;DHT22;72379;50.880;4.350;2023-10-31T20:57:26;13.50;99.90
21338;DHT22;72379;50.880;4.350;2023-10-31T20:59:52;13.30;99.90
21338;DHT22;72379;50.880;4.350;2023-10-31T21:02:18;13.30;99.90
21338;DHT22;72379;50.880;4.350;2023-10-31T21:04:44;13.30;99.90
21338;DHT22;72379;50.880;4.350;2023-10-31T21:07:10;13.10;99.90
21338;DHT22;72379;50.880;4.350;2023-10-31T21:12:02;13.40;99.90
21338;DHT22;72379;50.880;4.350;2023-10-31T21:14:28;13.30;99.90
21338;DHT22;72379;50.880;4.350;2023-10-31T21:16:54;13.40;99.90
21338;DHT22;72379;50.880;4.350;2023-10-31T21:19:20;13.30;99.90
21338;DHT22;72379;50.880;4.350;2023-10-31T21:21:46;13.30;99.90
21338;DHT22;72379;50.880;4.350;2023-10-31T21:24:12;13.20;99.90
21338;DHT22;72379;50.880;4.350;2023-10-31T21:38:49;14.00;99.90
21338;DHT22;72379;50.880;4.350;2023-10-31T21:41:14;13.30;99.90
21338;DHT22;72379;50.880;4.350;2023-10-31T21:46:06;13.70;99.90
21338;DHT22;72379;50.880;4.350;2023-10-31T21:48:32;13.60;99.90